createdAt,value
2018-07-24T00:02:25.724Z,22.76
2018-07-24T00:04:53.957Z,22.73
2018-07-24T00:07:22.145Z,22.68
2018-07-24T00:09:50.894Z,22.65
2018-07-24T00:12:19.113Z,22.59
2018-07-24T00:14:47.959Z,22.50
2018-07-24T00:17:16.171Z,22.46
2018-07-24T00:19:44.969Z,22.41
2018-07-24T00:22:13.509Z,22.36
2018-07-24T00:24:41.990Z,22.33
2018-07-24T00:27:10.293Z,22.28
2018-07-24T00:29:38.601Z,22.25
2018-07-24T00:32:06.823Z,22.23
2018-07-24T00:34:35.292Z,22.21
2018-07-24T00:37:03.759Z,22.20
2018-07-24T00:39:32.056Z,22.17
2018-07-24T00:42:00.625Z,22.16
2018-07-24T00:44:29.029Z,22.14
2018-07-24T00:46:57.255Z,22.12
2018-07-24T00:49:25.450Z,22.09
2018-07-24T00:51:53.910Z,22.06
2018-07-24T00:54:22.163Z,22.02
2018-07-24T00:56:50.678Z,21.97
2018-07-24T00:59:18.874Z,21.89
2018-07-24T01:01:47.721Z,21.86
2018-07-24T01:04:16.238Z,21.82
2018-07-24T01:06:45.070Z,21.79
2018-07-24T01:09:13.636Z,21.75
2018-07-24T01:11:42.141Z,21.71
2018-07-24T01:14:10.965Z,21.64
2018-07-24T01:16:39.195Z,21.58
2018-07-24T01:19:07.734Z,21.52
2018-07-24T01:21:36.549Z,21.47
2018-07-24T01:24:04.859Z,21.44
2018-07-24T01:26:33.509Z,21.40
2018-07-24T01:29:01.865Z,21.37
2018-07-24T01:31:31.475Z,21.33
2018-07-24T01:34:00.196Z,21.29
2018-07-24T01:36:28.423Z,21.24
2018-07-24T01:38:56.622Z,21.18
2018-07-24T01:41:25.035Z,21.13
2018-07-24T01:43:53.222Z,21.12
2018-07-24T01:46:21.749Z,21.10
2018-07-24T01:48:50.126Z,21.08
2018-07-24T01:51:18.671Z,21.04
2018-07-24T01:53:47.159Z,20.98
2018-07-24T01:56:15.372Z,20.93
2018-07-24T01:58:44.132Z,20.88
2018-07-24T02:01:12.894Z,20.87
2018-07-24T02:03:41.333Z,20.83
2018-07-24T02:06:09.538Z,20.79
2018-07-24T02:08:37.745Z,20.74
2018-07-24T02:11:06.806Z,20.71
2018-07-24T02:13:35.469Z,20.70
2018-07-24T02:16:03.957Z,20.69
2018-07-24T02:18:32.487Z,20.66
2018-07-24T02:21:01.291Z,20.64
2018-07-24T02:23:29.518Z,20.64
2018-07-24T02:25:58.050Z,20.62
2018-07-24T02:28:26.500Z,20.58
2018-07-24T02:30:54.944Z,20.52
2018-07-24T02:33:23.425Z,20.46
2018-07-24T02:35:52.265Z,20.41
2018-07-24T02:38:20.473Z,20.34
2018-07-24T02:40:49.007Z,20.30
2018-07-24T02:43:17.239Z,20.27
2018-07-24T02:45:45.734Z,20.23
2018-07-24T02:48:14.153Z,20.17
2018-07-24T02:50:42.818Z,20.12
2018-07-24T02:53:11.396Z,20.10
2018-07-24T02:55:39.596Z,20.06
2018-07-24T02:58:08.342Z,20.02
2018-07-24T03:00:37.090Z,19.98
2018-07-24T03:03:05.490Z,19.95
2018-07-24T03:05:33.690Z,19.91
2018-07-24T03:08:02.098Z,19.88
2018-07-24T03:10:31.399Z,19.82
2018-07-24T03:12:59.629Z,19.81
2018-07-24T03:15:35.199Z,19.79
2018-07-24T03:18:03.731Z,19.78
2018-07-24T03:20:32.561Z,19.76
2018-07-24T03:23:03.660Z,19.75
2018-07-24T03:25:32.460Z,19.73
2018-07-24T03:28:00.695Z,19.73
2018-07-24T03:30:30.097Z,19.72
2018-07-24T03:32:58.294Z,19.69
2018-07-24T03:35:26.891Z,19.66
2018-07-24T03:37:55.112Z,19.65
2018-07-24T03:40:23.306Z,19.63
2018-07-24T03:42:51.972Z,19.61
2018-07-24T03:45:20.704Z,19.60
2018-07-24T03:47:49.547Z,19.58
2018-07-24T03:50:17.748Z,19.58
2018-07-24T03:52:46.601Z,19.55
2018-07-24T03:55:15.093Z,19.50
2018-07-24T03:57:44.035Z,19.50
2018-07-24T04:00:12.810Z,19.52
2018-07-24T04:02:41.256Z,19.53
2018-07-24T04:05:09.473Z,19.53
2018-07-24T04:07:37.699Z,19.54
2018-07-24T04:10:06.746Z,19.51
2018-07-24T04:12:35.453Z,19.47
2018-07-24T04:15:03.679Z,19.44
2018-07-24T04:17:32.214Z,19.45
2018-07-24T04:20:00.428Z,19.46
2018-07-24T04:22:28.646Z,19.48
2018-07-24T04:24:57.389Z,19.44
2018-07-24T04:27:25.590Z,19.52
2018-07-24T04:29:53.805Z,19.58
2018-07-24T04:32:22.331Z,19.64
2018-07-24T04:34:50.563Z,19.71
2018-07-24T04:37:18.790Z,19.77
2018-07-24T04:39:47.954Z,19.87
2018-07-24T04:42:16.442Z,19.98
2018-07-24T04:44:44.659Z,20.07
2018-07-24T04:47:13.192Z,20.16
2018-07-24T04:49:41.726Z,20.24
2018-07-24T04:52:10.434Z,20.31
2018-07-24T04:54:40.008Z,20.39
2018-07-24T04:57:08.867Z,20.40
2018-07-24T04:59:37.418Z,20.39
2018-07-24T05:02:06.251Z,20.44
2018-07-24T05:04:34.488Z,20.50
2018-07-24T05:07:02.720Z,20.58
2018-07-24T05:09:31.748Z,20.64
2018-07-24T05:12:00.443Z,20.74
2018-07-24T05:14:29.041Z,20.87
2018-07-24T05:16:57.350Z,20.98
2018-07-24T05:19:25.690Z,21.10
2018-07-24T05:21:54.165Z,21.22
2018-07-24T05:24:22.453Z,21.35
2018-07-24T05:26:50.712Z,21.46
2018-07-24T05:29:18.938Z,21.59
2018-07-24T05:31:47.694Z,21.71
2018-07-24T05:34:15.935Z,21.81
2018-07-24T05:36:44.820Z,21.89
2018-07-24T05:39:13.427Z,21.99
2018-07-24T05:41:42.433Z,22.11
2018-07-24T05:44:11.073Z,22.25
2018-07-24T05:46:39.665Z,22.41
2018-07-24T05:49:08.350Z,22.54
2018-07-24T05:51:36.959Z,22.66
2018-07-24T05:54:05.351Z,22.79
2018-07-24T05:56:33.693Z,22.91
2018-07-24T05:59:02.564Z,23.08
2018-07-24T06:01:31.823Z,23.24
2018-07-24T06:04:00.281Z,23.41
2018-07-24T06:06:28.740Z,23.56
2018-07-24T06:08:56.869Z,23.71
2018-07-24T06:11:24.983Z,23.87
2018-07-24T06:13:53.088Z,24.04
2018-07-24T06:16:21.508Z,24.24
2018-07-24T06:18:50.131Z,24.49
2018-07-24T06:21:18.429Z,24.70
2018-07-24T06:23:46.821Z,24.84
2018-07-24T06:26:15.371Z,24.96
2018-07-24T06:28:43.696Z,25.07
2018-07-24T06:31:12.358Z,25.22
2018-07-24T06:33:40.927Z,25.44
2018-07-24T06:36:09.048Z,25.64
2018-07-24T06:38:38.184Z,25.85
2018-07-24T06:41:06.613Z,26.07
2018-07-24T06:43:35.259Z,26.26
2018-07-24T06:46:03.920Z,26.41
2018-07-24T06:48:32.316Z,26.59
2018-07-24T06:51:00.644Z,26.75
2018-07-24T06:53:28.888Z,26.95
2018-07-24T06:55:57.168Z,27.18
2018-07-24T06:58:25.604Z,27.40
2018-07-24T07:00:53.704Z,27.58
2018-07-24T07:03:22.206Z,27.76
2018-07-24T07:05:50.628Z,27.94
2018-07-24T07:08:19.242Z,28.08
2018-07-24T07:10:48.264Z,28.23
2018-07-24T07:13:16.961Z,28.28
2018-07-24T07:15:45.283Z,28.33
2018-07-24T07:18:13.701Z,28.43
2018-07-24T07:20:41.982Z,28.49
2018-07-24T07:23:10.864Z,28.58
2018-07-24T07:25:39.295Z,28.73
2018-07-24T07:28:07.736Z,28.90
2018-07-24T07:30:36.248Z,29.02
2018-07-24T07:33:05.579Z,29.12
2018-07-24T07:35:34.296Z,29.18
2018-07-24T07:38:02.412Z,29.27
2018-07-24T07:40:32.060Z,29.44
2018-07-24T07:43:00.164Z,29.55
2018-07-24T07:45:28.494Z,29.61
2018-07-24T07:47:56.824Z,29.66
2018-07-24T07:50:24.921Z,29.80
2018-07-24T07:52:53.364Z,29.94
2018-07-24T07:55:22.105Z,30.07
2018-07-24T07:57:50.560Z,30.23
2018-07-24T08:00:19.069Z,30.34
2018-07-24T08:02:47.446Z,30.58
2018-07-24T08:05:16.382Z,30.77
2018-07-24T08:07:44.496Z,30.94
2018-07-24T08:10:12.796Z,31.20
2018-07-24T08:12:41.541Z,31.28
2018-07-24T08:15:09.720Z,31.21
2018-07-24T08:17:38.324Z,31.12
2018-07-24T08:20:06.411Z,31.15
2018-07-24T08:22:35.151Z,31.30
2018-07-24T08:25:03.251Z,31.36
2018-07-24T08:27:32.217Z,31.41
2018-07-24T08:30:00.887Z,31.67
2018-07-24T08:32:28.983Z,31.94
2018-07-24T08:35:04.064Z,32.08
2018-07-24T08:37:32.693Z,32.16
2018-07-24T08:40:01.228Z,32.24
2018-07-24T08:42:29.356Z,32.35
2018-07-24T08:44:57.667Z,32.58
2018-07-24T08:47:26.355Z,32.86
2018-07-24T08:49:54.473Z,33.12
2018-07-24T08:52:23.111Z,33.31
2018-07-24T08:54:52.038Z,33.43
2018-07-24T08:57:20.096Z,33.46
2018-07-24T08:59:48.398Z,33.44
2018-07-24T09:02:16.833Z,33.42
2018-07-24T09:04:45.176Z,33.43
2018-07-24T09:07:13.612Z,33.36
2018-07-24T09:09:42.317Z,33.25
2018-07-24T09:12:10.708Z,33.34
2018-07-24T09:14:39.483Z,33.49
2018-07-24T09:17:07.635Z,33.41
2018-07-24T09:19:36.034Z,33.38
2018-07-24T09:22:04.676Z,33.45
2018-07-24T09:24:33.391Z,33.66
2018-07-24T09:27:01.577Z,33.81
2018-07-24T09:29:30.060Z,33.84
2018-07-24T09:31:58.354Z,33.80
2018-07-24T09:34:26.997Z,33.76
2018-07-24T09:36:55.252Z,33.71
2018-07-24T09:39:23.700Z,33.80
2018-07-24T09:41:52.133Z,33.96
2018-07-24T09:44:20.593Z,34.07
2018-07-24T09:46:48.681Z,34.13
2018-07-24T09:49:16.768Z,34.18
2018-07-24T09:51:45.444Z,34.26
2018-07-24T09:54:13.615Z,34.40
2018-07-24T09:56:42.040Z,34.50
2018-07-24T09:59:10.257Z,34.55
2018-07-24T10:01:38.556Z,34.65
2018-07-24T10:04:06.680Z,34.59
2018-07-24T10:06:35.753Z,34.56
2018-07-24T10:09:06.161Z,34.57
2018-07-24T10:11:35.093Z,34.72
2018-07-24T10:14:03.656Z,34.81
2018-07-24T10:16:32.952Z,34.93
2018-07-24T10:19:01.926Z,34.89
2018-07-24T10:21:30.340Z,34.89
2018-07-24T10:23:58.781Z,34.94
2018-07-24T10:26:29.559Z,34.93
2018-07-24T10:28:57.671Z,35.16
2018-07-24T10:31:25.784Z,35.46
2018-07-24T10:33:54.232Z,35.59
2018-07-24T10:36:22.685Z,35.63
2018-07-24T10:38:51.312Z,35.73
2018-07-24T10:44:13.003Z,35.54
2018-07-24T10:46:41.548Z,35.63
2018-07-24T10:49:10.107Z,35.91
2018-07-24T10:51:38.940Z,35.94
2018-07-24T10:54:07.624Z,35.97
2018-07-24T10:56:35.948Z,36.01
2018-07-24T10:59:05.097Z,36.05
2018-07-24T11:01:33.499Z,35.96
2018-07-24T11:06:54.902Z,35.73
2018-07-24T11:09:23.860Z,35.93
2018-07-24T11:11:52.768Z,36.21
2018-07-24T11:14:20.943Z,36.41
2018-07-24T11:16:49.033Z,36.81
2018-07-24T11:19:17.405Z,36.98
2018-07-24T11:21:45.843Z,37.14
2018-07-24T11:24:14.337Z,37.21
2018-07-24T11:26:42.748Z,37.42
2018-07-24T11:29:11.191Z,37.68
2018-07-24T11:31:39.567Z,37.84
2018-07-24T11:34:07.702Z,38.01
2018-07-24T11:36:35.976Z,37.90
2018-07-24T11:39:07.338Z,37.48
2018-07-24T11:41:35.955Z,37.35
2018-07-24T11:44:04.481Z,37.31
2018-07-24T11:46:33.159Z,37.17
2018-07-24T11:49:01.815Z,37.00
2018-07-24T11:51:30.296Z,36.95
2018-07-24T11:53:58.810Z,36.93
2018-07-24T11:56:27.476Z,37.13
2018-07-24T11:58:55.585Z,37.51
2018-07-24T12:01:24.472Z,37.87
2018-07-24T12:03:52.596Z,38.25
2018-07-24T12:06:21.060Z,38.49
2018-07-24T12:08:50.079Z,38.57
2018-07-24T12:11:18.588Z,38.43
2018-07-24T12:13:47.056Z,38.23
2018-07-24T12:16:15.724Z,38.14
2018-07-24T12:18:44.569Z,38.31
2018-07-24T12:21:12.656Z,38.25
2018-07-24T12:23:41.177Z,37.87
2018-07-24T12:26:09.932Z,37.65
2018-07-24T12:28:38.667Z,37.38
2018-07-24T12:31:06.867Z,37.19
2018-07-24T12:33:43.716Z,37.20
2018-07-24T12:36:12.016Z,37.45
2018-07-24T12:38:40.315Z,37.73
2018-07-24T12:41:09.222Z,38.03
2018-07-24T12:43:37.893Z,38.40
2018-07-24T12:46:06.331Z,38.48
2018-07-24T12:48:34.725Z,38.43
2018-07-24T12:51:03.105Z,38.37
2018-07-24T13:06:27.405Z,38.10
2018-07-24T13:08:55.676Z,39.45
2018-07-24T13:11:23.881Z,39.63
2018-07-24T13:13:52.314Z,39.75
2018-07-24T13:16:20.625Z,39.53
2018-07-24T13:18:48.931Z,39.17
2018-07-24T13:21:17.399Z,38.98
2018-07-24T13:26:39.204Z,38.87
2018-07-24T13:29:07.312Z,38.93
2018-07-24T13:31:35.702Z,38.81
2018-07-24T13:34:04.662Z,38.85
2018-07-24T13:36:33.561Z,38.97
2018-07-24T13:39:02.092Z,38.97
2018-07-24T13:41:30.342Z,39.04
2018-07-24T13:46:51.268Z,38.95
2018-07-24T13:49:20.460Z,38.96
2018-07-24T13:51:49.180Z,39.06
2018-07-24T13:57:09.784Z,39.03
2018-07-24T13:59:38.960Z,38.91
2018-07-24T14:02:07.513Z,38.70
2018-07-24T14:04:36.254Z,38.50
2018-07-24T14:07:05.404Z,38.32
2018-07-24T14:12:27.215Z,38.10
2018-07-24T14:14:55.648Z,38.16
2018-07-24T14:17:27.326Z,38.29
2018-07-24T14:19:55.818Z,38.37
2018-07-24T14:22:24.331Z,38.40
2018-07-24T14:24:52.773Z,38.41
2018-07-24T14:27:21.157Z,38.59
2018-07-24T14:29:49.585Z,38.72
2018-07-24T14:32:18.198Z,38.71
2018-07-24T14:34:46.663Z,38.55
2018-07-24T14:37:15.137Z,38.53
2018-07-24T14:39:53.101Z,38.74
2018-07-24T14:42:21.446Z,38.99
2018-07-24T14:44:50.515Z,39.25
2018-07-24T14:47:18.909Z,39.39
2018-07-24T14:49:47.303Z,39.40
2018-07-24T14:52:15.383Z,39.59
2018-07-24T14:54:44.011Z,39.50
2018-07-24T14:57:12.542Z,39.35
2018-07-24T14:59:41.467Z,39.12
2018-07-24T15:02:10.273Z,38.92
2018-07-24T15:04:38.949Z,38.69
2018-07-24T15:07:07.577Z,38.23
2018-07-24T15:09:56.484Z,37.89
2018-07-24T15:12:24.701Z,37.78
2018-07-24T15:14:53.241Z,37.98
2018-07-24T15:17:21.366Z,38.08
2018-07-24T15:19:50.048Z,38.01
2018-07-24T15:22:18.160Z,37.87
2018-07-24T15:24:46.881Z,37.82
2018-07-24T15:27:15.363Z,37.82
2018-07-24T15:29:43.654Z,37.85
2018-07-24T15:32:12.087Z,37.73
2018-07-24T15:34:40.567Z,37.64
2018-07-24T15:37:09.188Z,37.60
2018-07-24T15:39:37.572Z,37.59
2018-07-24T15:42:06.076Z,37.55
2018-07-24T15:44:34.729Z,37.54
2018-07-24T15:47:03.377Z,37.60
2018-07-24T15:49:33.656Z,37.78
2018-07-24T15:52:02.402Z,38.06
2018-07-24T15:54:30.991Z,38.27
2018-07-24T15:56:59.141Z,38.36
2018-07-24T15:59:34.340Z,38.10
2018-07-24T16:02:02.469Z,37.86
2018-07-24T16:04:30.899Z,37.84
2018-07-24T16:06:59.400Z,37.91
2018-07-24T16:09:27.509Z,37.94
2018-07-24T16:11:55.624Z,38.02
2018-07-24T16:14:24.051Z,38.10
2018-07-24T16:16:52.800Z,38.14
2018-07-24T16:19:21.387Z,38.18
2018-07-24T16:21:49.832Z,38.13
2018-07-24T16:24:18.572Z,38.09
2018-07-24T16:26:47.256Z,38.13
2018-07-24T16:29:15.373Z,38.14
2018-07-24T16:31:44.244Z,38.14
2018-07-24T16:34:12.696Z,38.14
2018-07-24T16:36:41.716Z,38.15
2018-07-24T16:39:11.666Z,38.16
2018-07-24T16:41:40.304Z,38.15
2018-07-24T16:44:08.409Z,38.14
2018-07-24T16:46:36.864Z,38.08
2018-07-24T16:49:05.393Z,37.80
2018-07-24T16:51:34.289Z,37.45
2018-07-24T16:54:02.589Z,37.27
2018-07-24T16:56:30.939Z,37.12
2018-07-24T16:58:59.141Z,37.05
2018-07-24T17:01:28.023Z,36.89
2018-07-24T17:03:57.256Z,36.84
2018-07-24T17:06:25.813Z,36.85
2018-07-24T17:08:54.167Z,36.91
2018-07-24T17:11:22.720Z,36.94
2018-07-24T17:13:50.834Z,36.81
2018-07-24T17:16:19.440Z,36.61
2018-07-24T17:18:47.532Z,36.28
2018-07-24T17:21:15.871Z,36.01
2018-07-24T17:23:44.271Z,35.82
2018-07-24T17:26:12.669Z,35.74
2018-07-24T17:28:41.314Z,35.72
2018-07-24T17:31:09.827Z,35.70
2018-07-24T17:33:38.555Z,35.69
2018-07-24T17:36:06.650Z,35.70
2018-07-24T17:38:35.356Z,35.64
2018-07-24T17:41:03.817Z,35.51
2018-07-24T17:43:31.940Z,35.40
2018-07-24T17:46:00.360Z,35.34
2018-07-24T17:48:28.963Z,35.23
2018-07-24T17:50:57.320Z,35.05
2018-07-24T17:53:25.696Z,34.90
2018-07-24T17:55:53.796Z,34.76
2018-07-24T17:58:25.264Z,34.73
2018-07-24T18:00:53.367Z,34.74
2018-07-24T18:03:21.796Z,34.68
2018-07-24T18:05:50.499Z,34.56
2018-07-24T18:08:18.619Z,34.49
2018-07-24T18:10:46.975Z,34.43
2018-07-24T18:13:15.684Z,34.38
2018-07-24T18:15:43.796Z,34.31
2018-07-24T18:18:12.367Z,34.26
2018-07-24T18:20:40.743Z,34.22
2018-07-24T18:23:09.491Z,34.15
2018-07-24T18:25:38.260Z,34.14
2018-07-24T18:28:06.507Z,34.11
2018-07-24T18:30:34.753Z,34.03
2018-07-24T18:33:03.374Z,33.93
2018-07-24T18:35:31.935Z,33.95
2018-07-24T18:38:01.510Z,33.91
2018-07-24T18:40:30.160Z,33.85
2018-07-24T18:42:58.811Z,33.77
2018-07-24T18:45:27.152Z,33.72
2018-07-24T18:47:55.456Z,33.67
2018-07-24T18:50:23.896Z,33.63
2018-07-24T18:52:52.616Z,33.59
2018-07-24T18:55:21.211Z,33.55
2018-07-24T18:57:49.611Z,33.50
2018-07-24T19:00:18.141Z,33.46
2018-07-24T19:02:47.072Z,33.42
2018-07-24T19:07:41.068Z,33.27
2018-07-24T19:10:09.449Z,33.17
2018-07-24T19:12:37.816Z,33.09
2018-07-24T19:15:06.562Z,33.00
2018-07-24T19:17:35.000Z,32.88
2018-07-24T19:20:03.396Z,32.73
2018-07-24T19:22:31.920Z,32.59
2018-07-24T19:25:00.407Z,32.48
2018-07-24T19:27:28.899Z,32.39
2018-07-24T19:29:57.003Z,32.28
2018-07-24T19:32:25.452Z,32.14
2018-07-24T19:34:54.093Z,32.03
2018-07-24T19:37:23.152Z,31.93
2018-07-24T19:39:51.552Z,31.83
2018-07-24T19:42:19.976Z,31.73
2018-07-24T19:44:48.067Z,31.63
2018-07-24T19:47:16.524Z,31.50
2018-07-24T19:49:45.312Z,31.42
2018-07-24T19:52:13.738Z,31.35
2018-07-24T19:54:42.156Z,31.26
2018-07-24T19:57:10.822Z,31.17
2018-07-24T19:59:39.543Z,31.06
2018-07-24T20:02:08.061Z,30.95
2018-07-24T20:04:37.000Z,30.86
2018-07-24T20:07:05.667Z,30.77
2018-07-24T20:09:34.379Z,30.68
2018-07-24T20:12:02.660Z,30.55
2018-07-24T20:14:31.155Z,30.46
2018-07-24T20:16:59.591Z,30.40
2018-07-24T20:19:28.236Z,30.32
2018-07-24T20:21:56.660Z,30.24
2018-07-24T20:24:24.762Z,30.14
2018-07-24T20:26:53.381Z,30.05
2018-07-24T20:29:22.007Z,29.97
2018-07-24T20:31:51.096Z,29.89
2018-07-24T20:34:19.414Z,29.80
2018-07-24T20:36:48.045Z,29.72
2018-07-24T20:39:16.159Z,29.64
2018-07-24T20:41:44.690Z,29.58
2018-07-24T20:44:13.276Z,29.52
2018-07-24T20:46:42.270Z,29.45
2018-07-24T20:49:10.710Z,29.39
2018-07-24T20:51:39.414Z,29.32
2018-07-24T20:54:08.163Z,29.23
2018-07-24T20:56:36.740Z,29.19
2018-07-24T20:59:05.176Z,29.10
2018-07-24T21:01:34.744Z,29.10
2018-07-24T21:04:02.868Z,29.02
2018-07-24T21:06:30.960Z,28.95
2018-07-24T21:08:59.420Z,28.88
2018-07-24T21:11:27.830Z,28.80
2018-07-24T21:13:55.923Z,28.73
2018-07-24T21:16:24.082Z,28.68
2018-07-24T21:18:52.541Z,28.64
2018-07-24T21:21:21.201Z,28.60
2018-07-24T21:23:49.324Z,28.56
2018-07-24T21:26:17.720Z,28.51
2018-07-24T21:28:46.093Z,28.41
2018-07-24T21:31:14.188Z,28.34
2018-07-24T21:33:43.048Z,28.25
2018-07-24T21:36:11.491Z,28.16
2018-07-24T21:38:40.089Z,28.05
2018-07-24T21:41:08.385Z,27.98
2018-07-24T21:43:36.972Z,27.90
2018-07-24T21:46:05.413Z,27.85
2018-07-24T21:48:34.332Z,27.76
2018-07-24T21:51:02.670Z,27.67
2018-07-24T21:53:30.976Z,27.56
2018-07-24T21:55:59.068Z,27.49
2018-07-24T21:58:27.180Z,27.43
2018-07-24T22:01:01.186Z,27.37
2018-07-24T22:03:29.629Z,27.30
2018-07-24T22:05:57.908Z,27.27
2018-07-24T22:08:26.008Z,27.28
2018-07-24T22:10:54.096Z,27.29
2018-07-24T22:13:22.195Z,27.27
2018-07-24T22:15:50.624Z,27.26
2018-07-24T22:18:19.105Z,27.29
2018-07-24T22:20:47.620Z,27.31
2018-07-24T22:23:16.064Z,27.30
2018-07-24T22:25:44.685Z,27.30
2018-07-24T22:28:13.407Z,27.29
2018-07-24T22:30:41.828Z,27.26
2018-07-24T22:33:10.064Z,27.22
2018-07-24T22:35:38.612Z,27.15
2018-07-24T22:38:07.036Z,27.08
2018-07-24T22:40:35.409Z,26.99
2018-07-24T22:43:03.932Z,26.91
2018-07-24T22:45:32.059Z,26.82
2018-07-24T22:48:00.471Z,26.78
2018-07-24T22:50:28.633Z,26.73
2018-07-24T22:52:57.184Z,26.69
2018-07-24T22:55:25.636Z,26.67
2018-07-24T22:57:53.724Z,26.64
2018-07-24T23:00:22.495Z,26.62
2018-07-24T23:02:51.167Z,26.54
2018-07-24T23:05:19.640Z,26.47
2018-07-24T23:07:48.601Z,26.40
2018-07-24T23:10:17.365Z,26.35
2018-07-24T23:12:45.744Z,26.33
2018-07-24T23:15:14.418Z,26.32
2018-07-24T23:17:43.048Z,26.30
2018-07-24T23:20:11.251Z,26.26
2018-07-24T23:22:39.976Z,26.17
2018-07-24T23:25:08.068Z,26.11
2018-07-24T23:27:36.680Z,26.04
2018-07-24T23:30:04.992Z,25.95
2018-07-24T23:32:34.879Z,25.81
2018-07-24T23:35:03.462Z,25.70
2018-07-24T23:37:32.367Z,25.60
2018-07-24T23:40:00.467Z,25.48
2018-07-24T23:42:28.567Z,25.37
2018-07-24T23:44:57.122Z,25.35
2018-07-24T23:47:25.882Z,25.44
2018-07-24T23:49:54.114Z,25.55
2018-07-24T23:52:22.733Z,25.62
2018-07-24T23:54:51.668Z,25.64
2018-07-24T23:57:19.772Z,25.70
2018-07-24T23:59:48.696Z,25.73
